Time;durP1;ratioP1;P1;durP2;ratioP2;P2;SDS_P1;SDS_P2;PMS_P1;PMS_P2;Temp;Humidity;BMP_temperature;BMP_pressure;BME280_temperature;BME280_humidity;BME280_pressure;Samples;Min_cycle;Max_cycle;Signal;HPM_P1;HPM_P2
2023/07/01 11:00:05;;;;;;;;;2.00;2.00;;;;;24.72;52.58;100592.72;1302327;23;45986;-92
2023/07/01 11:02:37;;;;;;;;;8.67;8.00;;;;;24.69;52.42;100600.03;4899602;29;45428;-90
2023/07/01 11:05:05;;;;;;;;;38.00;33.50;;;;;24.61;51.69;100591.09;4902890;29;45405;-91
2023/07/01 11:07:31;;;;;;;;;12.50;12.50;;;;;24.52;52.03;100590.19;4901470;29;46847;-91
2023/07/01 11:09:57;;;;;;;;;2.67;2.67;;;;;24.47;51.89;100595.13;4902479;29;45340;-91
2023/07/01 11:12:23;;;;;;;;;3.00;3.00;;;;;24.45;51.50;100594.44;4902570;29;45288;-90
2023/07/01 11:14:52;;;;;;;;;3.00;3.00;;;;;24.41;51.14;100588.59;4899144;29;45240;-91
2023/07/01 11:17:19;;;;;;;;;2.33;2.33;;;;;24.38;50.96;100592.38;4901333;29;45457;-90
2023/07/01 11:19:45;;;;;;;;;9.00;8.00;;;;;24.33;50.65;100602.63;4890572;29;45506;-92
2023/07/01 11:22:14;;;;;;;;;3.00;3.00;;;;;24.29;51.18;100593.28;4883406;29;45406;-91
2023/07/01 11:24:40;;;;;;;;;4.67;4.67;;;;;24.28;50.97;100583.63;4881942;29;45295;-91
2023/07/01 11:27:08;;;;;;;;;4.00;3.33;;;;;24.32;51.02;100581.50;4894537;29;46356;-91
2023/07/01 11:29:37;;;;;;;;;6.00;5.33;;;;;24.36;51.08;100578.41;4899749;29;45338;-90
2023/07/01 11:32:07;;;;;;;;;4.67;3.33;;;;;24.45;50.31;100579.34;4893726;29;45351;-92
2023/07/01 11:34:33;;;;;;;;;3.67;3.67;;;;;24.51;49.97;100583.19;4893979;29;45373;-91
2023/07/01 11:36:59;;;;;;;;;4.67;4.67;;;;;24.59;49.65;100591.28;4900375;29;45690;-91
2023/07/01 11:39:26;;;;;;;;;3.67;2.33;;;;;24.69;49.05;100594.72;4892108;29;45461;-91
2023/07/01 11:41:55;;;;;;;;;2.00;2.00;;;;;24.80;49.33;100587.47;4897588;29;45776;-91
2023/07/01 11:44:23;;;;;;;;;3.67;3.67;;;;;24.86;48.69;100594.91;4874795;29;45527;-91
2023/07/01 11:46:49;;;;;;;;;2.00;1.00;;;;;24.87;47.96;100591.25;4897311;29;47914;-91
2023/07/01 11:49:18;;;;;;;;;2.00;2.00;;;;;24.88;48.30;100587.59;4885116;29;46005;-91
2023/07/01 11:51:46;;;;;;;;;2.67;1.33;;;;;24.89;48.17;100585.75;4871873;29;45436;-91
2023/07/01 11:54:12;;;;;;;;;3.33;2.00;;;;;24.93;48.08;100597.75;4903032;29;45516;-92
2023/07/01 11:56:37;;;;;;;;;1.00;1.00;;;;;24.95;48.38;100585.16;4880920;29;46988;-90
2023/07/01 11:59:03;;;;;;;;;0.00;0.00;;;;;24.98;48.29;100595.47;4882687;29;45499;-90
2023/07/01 12:01:29;;;;;;;;;1.00;1.00;;;;;24.99;47.49;100597.13;4888566;29;45578;-90
2023/07/01 12:03:55;;;;;;;;;0.00;0.00;;;;;24.91;47.78;100592.56;4897077;29;45575;-92
2023/07/01 12:06:25;;;;;;;;;1.67;1.00;;;;;24.82;47.78;100598.84;4900296;29;46004;-91
2023/07/01 12:08:54;;;;;;;;;0.00;0.00;;;;;24.76;47.39;100599.41;4899734;29;45413;-90
2023/07/01 12:11:21;;;;;;;;;0.00;0.00;;;;;24.74;47.98;100612.03;4899691;29;45349;-90
2023/07/01 12:13:46;;;;;;;;;0.00;0.00;;;;;24.85;48.12;100608.34;4888657;29;45631;-90
2023/07/01 12:16:12;;;;;;;;;0.67;0.67;;;;;25.01;47.78;100612.97;4900368;29;45628;-91
2023/07/01 12:18:38;;;;;;;;;0.00;0.00;;;;;25.11;47.14;100620.84;4908556;28;45413;-91
2023/07/01 12:21:04;;;;;;;;;1.00;1.00;;;;;25.11;47.29;100626.19;4900612;29;45283;-92
2023/07/01 12:23:29;;;;;;;;;0.00;0.00;;;;;25.05;46.83;100635.63;4899330;29;45731;-92
2023/07/01 12:25:55;;;;;;;;;0.00;0.00;;;;;24.97;47.46;100638.19;4889794;29;45489;-93
2023/07/01 12:28:20;;;;;;;;;0.00;0.00;;;;;24.91;46.88;100631.69;4889118;29;45352;-90
2023/07/01 12:30:46;;;;;;;;;1.00;0.00;;;;;24.90;47.13;100641.47;4885058;29;45330;-90
2023/07/01 12:33:12;;;;;;;;;0.00;0.00;;;;;24.91;46.43;100639.66;4896022;29;45582;-89
2023/07/01 12:35:41;;;;;;;;;2.00;0.00;;;;;24.90;46.88;100648.63;4903981;28;46754;-90
2023/07/01 12:38:10;;;;;;;;;0.00;0.00;;;;;24.86;46.39;100649.94;4889825;29;45457;-91
